Daihatsumaru — JD2764 — position and weather

sailwx.info

Track history (hours):
 
Tides and Currents Weather Stations Pressure Air Temp Water Temp Dewpoint Dewpoint Depression Visibility Wind Speed Wind Dir Waves Ship Positions

Daihatsumaru

Last reported at 2015-Aug-02 01:24 UTC. Time now 2015-Aug-04 11:48 UTC.
Position N 34°37' E 135°15'.

Length 106 m; draft 4.5 m.

Type: Cargo ship. MMSI: 431000701.

Date/timePositionNaut miles runAvg speedWind from/ knotsBaromVisibWave heightAir tempDewpointWater temp
2015-Aug-02 01:24N 34°37' E 135°15'1 0.0
2015-Jul-31 18:06N 34°36' E 135°15'16 0.4
2015-Jul-30 05:28N 34°36' E 134°55'1111.9
2015-Jul-30 04:33N 34°36' E 135°08'1313.3
2015-Jul-30 03:33N 34°41' E 135°23'0 0.1
2015-Jul-30 02:10N 34°41' E 135°23'0 0.0
2015-Jul-30 01:28N 34°41' E 135°23'0 0.0
2015-Jul-30 00:28N 34°41' E 135°23'0 0.0
2015-Jul-29 23:28N 34°41' E 135°23'2 1.7
2015-Jul-29 22:32N 34°40' E 135°22'1 0.9
2015-Jul-29 21:33N 34°40' E 135°21'0 0.0
2015-Jul-29 20:33N 34°40' E 135°21'0 0.0
2015-Jul-29 19:30N 34°40' E 135°21'0 0.1
2015-Jul-29 18:33N 34°40' E 135°21'1414.0
2015-Jul-29 17:33N 34°34' E 135°05'8 0.2
2015-Jul-28 04:13N 34°37' E 134°57'811.8
2015-Jul-28 03:33N 34°36' E 135°06'1414.4
2015-Jul-28 02:33N 34°41' E 135°23'1 0.7
2015-Jul-28 01:25N 34°41' E 135°23'0 0.0
2015-Jul-28 00:31N 34°41' E 135°23'0 0.0
2015-Jul-27 23:31N 34°41' E 135°23'0 0.0
2015-Jul-27 22:31N 34°41' E 135°23'0 0.0
2015-Jul-27 21:31N 34°41' E 135°23'0 0.0
2015-Jul-27 20:19N 34°41' E 135°23'0 0.0
2015-Jul-27 19:31N 34°41' E 135°23'0 0.0
2015-Jul-27 18:13N 34°41' E 135°23'0 0.0
2015-Jul-27 17:31N 34°41' E 135°23'0 0.0
2015-Jul-27 16:31N 34°41' E 135°23'0 0.0
2015-Jul-27 15:31N 34°41' E 135°23'0 0.0
2015-Jul-27 14:31N 34°41' E 135°23'0 0.0
2015-Jul-27 13:31N 34°41' E 135°23'0 0.0
2015-Jul-27 12:25N 34°41' E 135°23'0 0.0
2015-Jul-27 11:31N 34°41' E 135°23'0 0.0
2015-Jul-27 10:31N 34°41' E 135°23'0 0.0
2015-Jul-27 09:25N 34°41' E 135°23'0 0.0
2015-Jul-27 08:07N 34°41' E 135°23'0 0.0
2015-Jul-27 07:25N 34°41' E 135°23'0 0.0
2015-Jul-27 06:31N 34°41' E 135°23'0 0.0
2015-Jul-27 05:31N 34°41' E 135°23'0 0.0
2015-Jul-27 04:31N 34°41' E 135°23'0 0.0
2015-Jul-27 03:31N 34°41' E 135°23'0 0.0
2015-Jul-27 02:31N 34°41' E 135°23'0 0.0
2015-Jul-27 01:31N 34°41' E 135°23'0 0.0
2015-Jul-27 00:31N 34°41' E 135°23'0 0.0
2015-Jul-26 23:31N 34°41' E 135°23'0 0.0
2015-Jul-26 22:19N 34°41' E 135°23'0 0.0
2015-Jul-26 21:25N 34°41' E 135°23'0 0.0
2015-Jul-26 20:31N 34°41' E 135°23'0 0.0
2015-Jul-26 19:31N 34°41' E 135°23'0 0.0
2015-Jul-26 18:31N 34°41' E 135°23'0 0.0
2015-Jul-26 17:31N 34°41' E 135°23'0 0.0
2015-Jul-26 16:31N 34°41' E 135°23'0 0.0
2015-Jul-26 15:31N 34°41' E 135°23'0 0.0
2015-Jul-26 14:31N 34°41' E 135°23'0 0.0
2015-Jul-26 13:25N 34°41' E 135°23'0 0.0
2015-Jul-26 12:19N 34°41' E 135°23'0 0.0
2015-Jul-26 11:31N 34°41' E 135°23'0 0.0
2015-Jul-26 10:13N 34°41' E 135°23'0 0.0
2015-Jul-26 09:31N 34°41' E 135°23'0 0.0
2015-Jul-26 08:13N 34°41' E 135°23'0 0.0
2015-Jul-26 07:25N 34°41' E 135°23'0 0.0
2015-Jul-26 06:25N 34°41' E 135°23'0 0.0
2015-Jul-26 05:31N 34°41' E 135°23'0 0.0
2015-Jul-26 04:31N 34°41' E 135°23'0 0.0
2015-Jul-26 03:25N 34°41' E 135°23'0 0.0
2015-Jul-26 02:31N 34°41' E 135°23'0 0.0
2015-Jul-26 01:25N 34°41' E 135°23'0 0.0
2015-Jul-26 00:31N 34°41' E 135°23'0 0.0
2015-Jul-25 23:25N 34°41' E 135°23'2 2.8
2015-Jul-25 22:33N 34°40' E 135°21'0 0.0
2015-Jul-25 21:33N 34°40' E 135°21'0 0.0
2015-Jul-25 20:33N 34°40' E 135°21'0 0.0
2015-Jul-25 19:33N 34°40' E 135°21'1 1.1
2015-Jul-25 18:33N 34°39' E 135°20'1413.9
2015-Jul-25 17:33N 34°36' E 135°04'7 0.2
2015-Jul-24 04:18N 34°36' E 134°55'1215.3
2015-Jul-24 03:33N 34°36' E 135°09'1310.2
2015-Jul-24 02:16N 34°41' E 135°23'0 0.0
2015-Jul-24 01:28N 34°41' E 135°23'0 0.0
2015-Jul-23 22:25N 34°41' E 135°23'3 3.1
2015-Jul-23 21:23N 34°40' E 135°20'0 0.0
2015-Jul-23 20:29N 34°40' E 135°20'0 0.0
2015-Jul-23 19:30N 34°40' E 135°20'8 8.2
2015-Jul-23 18:34N 34°35' E 135°12'1413.8
2015-Jul-23 17:33N 34°35' E 134°55'  
Track history (hours):
 
Tides and Currents Weather Stations Pressure Air Temp Water Temp Dewpoint Dewpoint Depression Visibility Wind Speed Wind Dir Waves Ship Positions

Daihatsumaru

Last reported at 2015-Aug-02 01:24 UTC. Time now 2015-Aug-04 11:48 UTC.
Position N 34°37' E 135°15'.

Length 106 m; draft 4.5 m.

Type: Cargo ship. MMSI: 431000701.

Date/timePositionNaut miles runAvg speedWind from/ knotsBaromVisibWave heightAir tempDewpointWater temp
2015-Aug-02 01:24N 34°37' E 135°15'1 0.0
2015-Jul-31 18:06N 34°36' E 135°15'16 0.4
2015-Jul-30 05:28N 34°36' E 134°55'1111.9
2015-Jul-30 04:33N 34°36' E 135°08'1313.3
2015-Jul-30 03:33N 34°41' E 135°23'0 0.1
2015-Jul-30 02:10N 34°41' E 135°23'0 0.0
2015-Jul-30 01:28N 34°41' E 135°23'0 0.0
2015-Jul-30 00:28N 34°41' E 135°23'0 0.0
2015-Jul-29 23:28N 34°41' E 135°23'2 1.7
2015-Jul-29 22:32N 34°40' E 135°22'1 0.9
2015-Jul-29 21:33N 34°40' E 135°21'0 0.0
2015-Jul-29 20:33N 34°40' E 135°21'0 0.0
2015-Jul-29 19:30N 34°40' E 135°21'0 0.1
2015-Jul-29 18:33N 34°40' E 135°21'1414.0
2015-Jul-29 17:33N 34°34' E 135°05'8 0.2
2015-Jul-28 04:13N 34°37' E 134°57'811.8
2015-Jul-28 03:33N 34°36' E 135°06'1414.4
2015-Jul-28 02:33N 34°41' E 135°23'1 0.7
2015-Jul-28 01:25N 34°41' E 135°23'0 0.0
2015-Jul-28 00:31N 34°41' E 135°23'0 0.0
2015-Jul-27 23:31N 34°41' E 135°23'0 0.0
2015-Jul-27 22:31N 34°41' E 135°23'0 0.0
2015-Jul-27 21:31N 34°41' E 135°23'0 0.0
2015-Jul-27 20:19N 34°41' E 135°23'0 0.0
2015-Jul-27 19:31N 34°41' E 135°23'0 0.0
2015-Jul-27 18:13N 34°41' E 135°23'0 0.0
2015-Jul-27 17:31N 34°41' E 135°23'0 0.0
2015-Jul-27 16:31N 34°41' E 135°23'0 0.0
2015-Jul-27 15:31N 34°41' E 135°23'0 0.0
2015-Jul-27 14:31N 34°41' E 135°23'0 0.0
2015-Jul-27 13:31N 34°41' E 135°23'0 0.0
2015-Jul-27 12:25N 34°41' E 135°23'0 0.0
2015-Jul-27 11:31N 34°41' E 135°23'0 0.0
2015-Jul-27 10:31N 34°41' E 135°23'0 0.0
2015-Jul-27 09:25N 34°41' E 135°23'0 0.0
2015-Jul-27 08:07N 34°41' E 135°23'0 0.0
2015-Jul-27 07:25N 34°41' E 135°23'0 0.0
2015-Jul-27 06:31N 34°41' E 135°23'0 0.0
2015-Jul-27 05:31N 34°41' E 135°23'0 0.0
2015-Jul-27 04:31N 34°41' E 135°23'0 0.0
2015-Jul-27 03:31N 34°41' E 135°23'0 0.0
2015-Jul-27 02:31N 34°41' E 135°23'0 0.0
2015-Jul-27 01:31N 34°41' E 135°23'0 0.0
2015-Jul-27 00:31N 34°41' E 135°23'0 0.0
2015-Jul-26 23:31N 34°41' E 135°23'0 0.0
2015-Jul-26 22:19N 34°41' E 135°23'0 0.0
2015-Jul-26 21:25N 34°41' E 135°23'0 0.0
2015-Jul-26 20:31N 34°41' E 135°23'0 0.0
2015-Jul-26 19:31N 34°41' E 135°23'0 0.0
2015-Jul-26 18:31N 34°41' E 135°23'0 0.0
2015-Jul-26 17:31N 34°41' E 135°23'0 0.0
2015-Jul-26 16:31N 34°41' E 135°23'0 0.0
2015-Jul-26 15:31N 34°41' E 135°23'0 0.0
2015-Jul-26 14:31N 34°41' E 135°23'0 0.0
2015-Jul-26 13:25N 34°41' E 135°23'0 0.0
2015-Jul-26 12:19N 34°41' E 135°23'0 0.0
2015-Jul-26 11:31N 34°41' E 135°23'0 0.0
2015-Jul-26 10:13N 34°41' E 135°23'0 0.0
2015-Jul-26 09:31N 34°41' E 135°23'0 0.0
2015-Jul-26 08:13N 34°41' E 135°23'0 0.0
2015-Jul-26 07:25N 34°41' E 135°23'0 0.0
2015-Jul-26 06:25N 34°41' E 135°23'0 0.0
2015-Jul-26 05:31N 34°41' E 135°23'0 0.0
2015-Jul-26 04:31N 34°41' E 135°23'0 0.0
2015-Jul-26 03:25N 34°41' E 135°23'0 0.0
2015-Jul-26 02:31N 34°41' E 135°23'0 0.0
2015-Jul-26 01:25N 34°41' E 135°23'0 0.0
2015-Jul-26 00:31N 34°41' E 135°23'0 0.0
2015-Jul-25 23:25N 34°41' E 135°23'2 2.8
2015-Jul-25 22:33N 34°40' E 135°21'0 0.0
2015-Jul-25 21:33N 34°40' E 135°21'0 0.0
2015-Jul-25 20:33N 34°40' E 135°21'0 0.0
2015-Jul-25 19:33N 34°40' E 135°21'1 1.1
2015-Jul-25 18:33N 34°39' E 135°20'1413.9
2015-Jul-25 17:33N 34°36' E 135°04'7 0.2
2015-Jul-24 04:18N 34°36' E 134°55'1215.3
2015-Jul-24 03:33N 34°36' E 135°09'1310.2
2015-Jul-24 02:16N 34°41' E 135°23'0 0.0
2015-Jul-24 01:28N 34°41' E 135°23'0 0.0
2015-Jul-23 22:25N 34°41' E 135°23'3 3.1
2015-Jul-23 21:23N 34°40' E 135°20'0 0.0
2015-Jul-23 20:29N 34°40' E 135°20'0 0.0
2015-Jul-23 19:30N 34°40' E 135°20'8 8.2
2015-Jul-23 18:34N 34°35' E 135°12'1413.8
2015-Jul-23 17:33N 34°35' E 134°55'  

Dump ship's entire track history